Time;durP1;ratioP1;P1;durP2;ratioP2;P2;SDS_P1;SDS_P2;PMS_P1;PMS_P2;Temp;Humidity;BMP_temperature;BMP_pressure;BME280_temperature;BME280_humidity;BME280_pressure;Samples;Min_cycle;Max_cycle;Signal;HPM_P1;HPM_P2
2022/10/08 00:00:55;;;;;;;27.22;10.88;;;;;;;9.67;100.00;100834.91;1806187;79;20968;-73
2022/10/08 00:03:25;;;;;;;16.03;7.30;;;;;;;9.65;100.00;100829.64;1819011;79;21431;-73
2022/10/08 00:05:57;;;;;;;18.02;7.78;;;;;;;9.65;100.00;100826.06;1818764;79;21012;-74
2022/10/08 00:08:24;;;;;;;24.13;9.63;;;;;;;9.63;100.00;100823.55;1818889;79;20984;-73
2022/10/08 00:10:57;;;;;;;20.60;7.62;;;;;;;9.62;100.00;100827.23;1818616;79;21031;-73
2022/10/08 00:13:25;;;;;;;17.70;6.22;;;;;;;9.60;100.00;100818.93;1818942;79;20992;-74
2022/10/08 00:15:52;;;;;;;12.27;5.27;;;;;;;9.59;100.00;100821.27;1808179;79;21027;-73
2022/10/08 00:18:20;;;;;;;9.90;4.73;;;;;;;9.57;100.00;100821.41;1800119;79;21012;-73
2022/10/08 00:20:47;;;;;;;8.90;4.45;;;;;;;9.55;100.00;100815.30;1800191;80;20995;-74
2022/10/08 00:23:15;;;;;;;8.63;3.67;;;;;;;9.55;100.00;100822.56;1800002;80;21546;-73
2022/10/08 00:25:43;;;;;;;5.67;4.03;;;;;;;9.52;100.00;100811.54;1799970;80;21520;-74
2022/10/08 00:28:12;;;;;;;7.75;3.85;;;;;;;9.50;100.00;100814.89;1799874;80;21050;-74
2022/10/08 00:30:40;;;;;;;8.95;4.03;;;;;;;9.49;100.00;100805.95;1799811;80;21070;-73
2022/10/08 00:33:07;;;;;;;21.70;7.28;;;;;;;9.46;100.00;100804.88;1799835;80;21023;-74
2022/10/08 00:35:37;;;;;;;19.32;7.37;;;;;;;9.45;100.00;100802.32;1799868;80;21031;-73
2022/10/08 00:38:04;;;;;;;17.53;6.20;;;;;;;9.42;100.00;100797.20;1800117;79;21075;-72
2022/10/08 00:40:43;;;;;;;23.05;8.05;;;;;;;9.40;100.00;100791.11;1799944;80;21039;-72
2022/10/08 00:43:14;;;;;;;20.67;7.50;;;;;;;9.37;100.00;100780.62;1800215;80;20987;-74
2022/10/08 00:45:43;;;;;;;23.83;8.63;;;;;;;9.34;100.00;100780.91;1799920;80;21025;-73
2022/10/08 00:48:15;;;;;;;32.47;12.17;;;;;;;9.33;100.00;100780.06;1800193;79;20971;-72
2022/10/08 00:50:43;;;;;;;49.25;16.30;;;;;;;9.30;100.00;100774.44;1711772;84;21061;-73
2022/10/08 00:53:10;;;;;;;44.07;15.63;;;;;;;9.28;100.00;100774.24;1711898;84;21056;-74
2022/10/08 00:55:39;;;;;;;37.60;12.93;;;;;;;9.24;100.00;100768.28;1711766;84;21079;-73
2022/10/08 00:58:20;;;;;;;27.67;10.83;;;;;;;9.22;100.00;100768.05;1712009;84;21451;-74
2022/10/08 01:00:49;;;;;;;34.50;10.90;;;;;;;9.18;100.00;100763.95;1716222;82;21054;-74
2022/10/08 01:03:16;;;;;;;41.70;13.90;;;;;;;9.16;100.00;100761.91;1724896;83;21046;-74
2022/10/08 01:06:10;;;;;;;35.23;11.63;;;;;;;9.12;100.00;100764.04;1725168;83;21034;-74
2022/10/08 01:08:49;;;;;;;32.35;10.58;;;;;;;9.11;100.00;100756.93;1725471;83;21097;-74
2022/10/08 01:11:42;;;;;;;28.33;8.63;;;;;;;9.08;100.00;100751.34;1724187;83;21082;-73
2022/10/08 01:14:48;;;;;;;26.30;8.70;;;;;;;9.05;100.00;100753.47;1725463;83;21014;-74
2022/10/08 01:17:32;;;;;;;45.00;14.90;;;;;;;8.99;100.00;100749.48;1725152;83;21082;-73
2022/10/08 01:20:31;;;;;;;37.33;12.83;;;;;;;8.92;100.00;100748.34;1725101;83;21057;-74
2022/10/08 01:23:29;;;;;;;54.53;16.80;;;;;;;8.85;100.00;100750.79;1725417;83;21010;-73
2022/10/08 01:26:29;;;;;;;47.13;16.00;;;;;;;8.81;100.00;100748.51;1725118;83;21584;-73
2022/10/08 01:29:06;;;;;;;48.87;16.73;;;;;;;8.77;100.00;100742.55;1725364;83;21002;-73
2022/10/08 01:31:47;;;;;;;47.77;16.40;;;;;;;8.76;100.00;100742.69;1725052;80;21041;-74
2022/10/08 01:34:45;;;;;;;47.27;15.17;;;;;;;8.74;100.00;100739.63;1638530;88;21081;-73
2022/10/08 01:37:18;;;;;;;33.57;10.83;;;;;;;8.72;100.00;100732.69;1631163;88;21065;-74
2022/10/08 01:39:45;;;;;;;32.78;11.78;;;;;;;8.69;100.00;100728.44;1636290;88;21555;-74
2022/10/08 01:42:11;;;;;;;25.27;8.37;;;;;;;8.66;100.00;100728.72;1638296;88;21070;-74
2022/10/08 01:44:47;;;;;;;26.43;8.97;;;;;;;8.64;100.00;100720.39;1638527;86;21536;-73
2022/10/08 01:47:18;;;;;;;79.93;23.43;;;;;;;8.63;100.00;100719.55;1638346;88;21131;-74
2022/10/08 01:50:04;;;;;;;41.40;13.40;;;;;;;8.62;100.00;100725.92;1638476;88;21111;-74
2022/10/08 01:52:37;;;;;;;31.47;10.57;;;;;;;8.60;100.00;100718.98;1583579;90;21142;-74
2022/10/08 01:55:08;;;;;;;26.15;9.08;;;;;;;8.57;100.00;100722.83;1631736;88;21074;-74
2022/10/08 01:57:35;;;;;;;20.93;8.60;;;;;;;8.56;100.00;100718.42;1629074;88;21589;-73
2022/10/08 02:00:08;;;;;;;19.27;7.40;;;;;;;8.52;100.00;100711.11;1607849;88;21574;-73
2022/10/08 02:02:41;;;;;;;33.63;11.73;;;;;;;8.51;100.00;100709.91;1632407;88;21039;-73
2022/10/08 02:05:10;;;;;;;38.97;14.67;;;;;;;8.50;100.00;100712.27;1632605;88;21162;-73
2022/10/08 02:07:41;;;;;;;31.23;10.90;;;;;;;8.47;100.00;100702.59;1632481;88;21107;-73
2022/10/08 02:10:17;;;;;;;23.40;8.87;;;;;;;8.44;100.00;100693.44;1626268;88;21161;-72
2022/10/08 02:12:44;;;;;;;27.33;9.60;;;;;;;8.42;100.00;100694.55;1618729;89;21067;-74
2022/10/08 02:15:22;;;;;;;86.37;28.77;;;;;;;8.42;100.00;100690.04;1665075;85;21518;-73
2022/10/08 02:18:07;;;;;;;362.10;119.90;;;;;;;8.42;100.00;100681.95;1581146;90;21178;-74
2022/10/08 02:21:03;;;;;;;420.67;134.23;;;;;;;8.43;100.00;100681.45;1579736;90;21584;-73
2022/10/08 02:23:46;;;;;;;286.83;93.50;;;;;;;8.40;100.00;100677.68;1580542;90;21584;-73
2022/10/08 02:26:20;;;;;;;269.67;85.50;;;;;;;8.35;100.00;100669.50;1578205;90;21159;-73
2022/10/08 02:29:03;;;;;;;130.37;44.57;;;;;;;8.33;100.00;100662.06;1528184;93;21137;-73
2022/10/08 02:31:49;;;;;;;72.17;26.43;;;;;;;8.31;100.00;100660.52;1545666;93;21105;-73
2022/10/08 02:34:37;;;;;;;48.90;17.80;;;;;;;8.30;100.00;100656.11;1551965;92;21092;-74
2022/10/08 02:37:19;;;;;;;94.37;32.50;;;;;;;8.27;100.00;100657.25;1527508;93;21097;-74
2022/10/08 02:39:51;;;;;;;109.33;39.00;;;;;;;8.24;100.00;100649.44;1527198;93;21100;-74
2022/10/08 02:42:22;;;;;;;80.60;28.40;;;;;;;8.23;100.00;100645.54;1526790;93;21156;-75
2022/10/08 02:45:03;;;;;;;54.97;20.90;;;;;;;8.21;100.00;100649.72;1527201;93;21120;-73
2022/10/08 02:47:32;;;;;;;44.20;16.20;;;;;;;8.18;100.00;100649.52;1487330;96;21109;-73
2022/10/08 02:50:02;;;;;;;36.17;13.47;;;;;;;8.15;100.00;100647.59;1487717;96;21611;-73
2022/10/08 02:52:35;;;;;;;30.33;11.27;;;;;;;8.14;100.00;100644.54;1487394;96;21172;-72
2022/10/08 02:55:06;;;;;;;23.17;8.60;;;;;;;8.11;100.00;100642.98;1509148;92;21094;-74
2022/10/08 02:57:42;;;;;;;24.97;9.80;;;;;;;8.11;100.00;100638.95;1562157;92;21070;-72
2022/10/08 03:00:11;;;;;;;39.63;11.50;;;;;;;8.11;100.00;100633.56;1490452;94;21573;-73
2022/10/08 03:02:49;;;;;;;31.00;10.17;;;;;;;8.12;100.00;100641.98;1488094;96;21136;-73
2022/10/08 03:05:17;;;;;;;22.17;8.50;;;;;;;8.11;100.00;100651.07;1487219;95;21113;-73
2022/10/08 03:07:46;;;;;;;45.77;15.67;;;;;;;8.11;100.00;100647.50;1487993;96;21165;-73
2022/10/08 03:10:13;;;;;;;79.47;24.37;;;;;;;8.09;100.00;100652.19;1490656;96;21145;-74
2022/10/08 03:12:40;;;;;;;108.40;36.03;;;;;;;8.08;100.00;100654.54;1495189;96;21141;-72
2022/10/08 03:15:10;;;;;;;211.50;68.50;;;;;;;8.07;100.00;100646.94;1559889;91;21074;-73
2022/10/08 03:17:41;;;;;;;179.13;54.93;;;;;;;8.06;100.00;100644.41;1569488;91;21122;-74
2022/10/08 03:20:09;;;;;;;81.17;30.27;;;;;;;8.04;100.00;100644.55;1521095;94;21073;-73
2022/10/08 03:22:37;;;;;;;73.70;25.50;;;;;;;8.03;100.00;100648.22;1520860;94;21085;-73
2022/10/08 03:25:04;;;;;;;56.93;20.83;;;;;;;7.99;100.00;100640.91;1517545;94;21127;-73
2022/10/08 03:27:33;;;;;;;54.23;18.83;;;;;;;7.94;100.00;100640.47;1520743;94;21112;-74
2022/10/08 03:30:01;;;;;;;39.33;15.10;;;;;;;7.90;100.00;100643.09;1520897;93;21081;-74
2022/10/08 03:32:29;;;;;;;33.83;11.67;;;;;;;7.88;100.00;100641.52;1527631;90;21141;-74
2022/10/08 03:34:56;;;;;;;23.63;9.03;;;;;;;7.86;100.00;100640.34;1593892;90;21141;-73
2022/10/08 03:37:23;;;;;;;31.10;10.10;;;;;;;7.83;100.00;100638.42;1542238;91;21061;-74
2022/10/08 03:39:50;;;;;;;23.83;9.20;;;;;;;7.79;100.00;100633.30;1591546;90;21112;-73
2022/10/08 03:42:17;;;;;;;27.40;8.70;;;;;;;7.76;100.00;100633.57;1593336;90;21136;-72
2022/10/08 03:44:46;;;;;;;22.73;8.37;;;;;;;7.73;100.00;100631.15;1593911;90;21130;-73
2022/10/08 03:47:12;;;;;;;34.03;11.63;;;;;;;7.72;100.00;100639.36;1593855;90;21255;-74
2022/10/08 03:49:40;;;;;;;36.57;10.90;;;;;;;7.70;100.00;100636.83;1606393;86;21128;-74
2022/10/08 03:52:06;;;;;;;28.53;9.60;;;;;;;7.67;100.00;100637.10;1676595;86;21045;-74
2022/10/08 03:54:34;;;;;;;33.93;12.33;;;;;;;7.64;100.00;100641.41;1675748;86;21004;-74
2022/10/08 03:57:02;;;;;;;24.73;10.13;;;;;;;7.62;100.00;100639.34;1674508;86;21029;-73
2022/10/08 03:59:29;;;;;;;29.33;11.20;;;;;;;7.60;100.00;100642.17;1674507;86;21594;-75
2022/10/08 04:01:56;;;;;;;26.97;10.70;;;;;;;7.59;100.00;100644.49;1695364;84;21061;-74
2022/10/08 04:04:23;;;;;;;27.37;9.67;;;;;;;7.58;100.00;100643.31;1697550;84;21041;-74
2022/10/08 04:06:50;;;;;;;22.17;8.20;;;;;;;7.57;100.00;100646.98;1697496;84;21101;-73
2022/10/08 04:09:17;;;;;;;19.80;7.93;;;;;;;7.54;100.00;100647.24;1697947;84;21053;-74
2022/10/08 04:11:43;;;;;;;18.70;8.20;;;;;;;7.55;100.00;100649.80;1695204;84;21077;-73
2022/10/08 04:14:10;;;;;;;19.50;8.03;;;;;;;7.55;100.00;100664.60;1695019;85;21494;-73
2022/10/08 04:16:38;;;;;;;18.17;7.57;;;;;;;7.56;100.00;100682.94;1748490;78;21525;-74
2022/10/08 04:19:05;;;;;;;15.53;7.43;;;;;;;7.56;100.00;100678.43;1821730;78;20982;-73
2022/10/08 04:21:31;;;;;;;13.00;6.40;;;;;;;7.59;100.00;100679.48;1817094;79;21081;-73
2022/10/08 04:23:58;;;;;;;13.77;6.33;;;;;;;7.60;100.00;100681.20;1817495;79;21041;-72
2022/10/08 04:26:25;;;;;;;13.93;6.63;;;;;;;7.64;100.00;100686.31;1817465;79;21500;-73
2022/10/08 04:28:53;;;;;;;15.83;6.47;;;;;;;7.67;100.00;100686.90;1817125;79;21076;-72
2022/10/08 04:31:22;;;;;;;13.43;6.47;;;;;;;7.69;100.00;100686.27;1817132;79;21002;-73
2022/10/08 04:33:49;;;;;;;13.40;6.80;;;;;;;7.72;100.00;100686.47;1817440;79;21126;-74
2022/10/08 04:36:21;;;;;;;12.37;6.20;;;;;;;7.73;100.00;100688.19;1817425;79;21022;-73
2022/10/08 04:38:48;;;;;;;17.13;6.43;;;;;;;7.74;100.00;100689.40;1817579;79;21337;-73
2022/10/08 04:41:20;;;;;;;11.83;5.83;;;;;;;7.77;100.00;100686.91;1817554;79;21054;-73
2022/10/08 04:43:47;;;;;;;13.07;5.80;;;;;;;7.81;100.00;100689.70;1817383;79;20955;-73
2022/10/08 04:46:17;;;;;;;34.00;13.40;;;;;;;7.85;100.00;100685.74;1817362;79;20971;-73
2022/10/08 04:48:51;;;;;;;35.90;16.33;;;;;;;7.91;100.00;100683.83;1817531;79;21535;-73
2022/10/08 04:51:18;;;;;;;28.17;12.60;;;;;;;7.98;100.00;100682.79;1724602;83;21043;-74
2022/10/08 04:53:45;;;;;;;37.93;17.70;;;;;;;8.05;100.00;100675.86;1724891;82;21051;-73
2022/10/08 04:56:18;;;;;;;34.17;14.47;;;;;;;8.12;100.00;100677.00;1724781;83;21056;-74
2022/10/08 04:58:45;;;;;;;23.00;10.57;;;;;;;8.18;100.00;100676.96;1664118;86;21577;-71
2022/10/08 05:01:15;;;;;;;20.50;8.60;;;;;;;8.23;100.00;100676.02;1660092;86;21576;-72
2022/10/08 05:03:45;;;;;;;16.20;6.90;;;;;;;8.30;100.00;100672.27;1659419;86;21538;-71
2022/10/08 05:06:15;;;;;;;14.83;6.57;;;;;;;8.38;100.00;100672.94;1664197;86;21101;-72
2022/10/08 05:08:43;;;;;;;16.67;6.77;;;;;;;8.45;100.00;100673.59;1663810;86;21119;-72
2022/10/08 05:11:10;;;;;;;17.00;6.63;;;;;;;8.53;100.00;100673.75;1661359;85;21154;-71
2022/10/08 05:13:38;;;;;;;15.30;6.93;;;;;;;8.61;100.00;100674.37;1637608;87;21008;-72
2022/10/08 05:16:06;;;;;;;16.90;8.03;;;;;;;8.69;100.00;100677.69;1650008;87;21178;-71
2022/10/08 05:18:34;;;;;;;18.63;7.77;;;;;;;8.76;100.00;100680.16;1656994;86;21064;-72
2022/10/08 05:21:06;;;;;;;38.73;16.13;;;;;;;8.83;100.00;100675.05;1639592;86;21449;-71
2022/10/08 05:23:34;;;;;;;33.23;13.53;;;;;;;8.90;100.00;100680.22;1638159;88;21084;-72
2022/10/08 05:26:03;;;;;;;41.50;20.13;;;;;;;8.99;100.00;100675.80;1638124;88;21049;-72
2022/10/08 05:28:30;;;;;;;62.77;27.33;;;;;;;9.08;100.00;100670.87;1634017;87;21568;-72
2022/10/08 05:31:00;;;;;;;26.27;11.30;;;;;;;9.16;100.00;100672.36;1637391;88;21058;-71
2022/10/08 05:33:27;;;;;;;22.63;10.20;;;;;;;9.24;100.00;100672.48;1637336;88;21134;-72
2022/10/08 05:35:54;;;;;;;28.10;13.40;;;;;;;9.34;100.00;100671.59;1637505;88;21519;-72
2022/10/08 05:38:20;;;;;;;25.60;10.77;;;;;;;9.44;100.00;100665.67;1637243;88;21078;-72
2022/10/08 05:40:48;;;;;;;19.37;8.83;;;;;;;9.55;100.00;100667.33;1637265;88;21114;-72
2022/10/08 05:43:16;;;;;;;19.53;8.47;;;;;;;9.68;100.00;100663.28;1637590;88;21163;-72
2022/10/08 05:45:50;;;;;;;18.65;8.63;;;;;;;9.82;100.00;100657.85;1637798;88;21157;-72
2022/10/08 05:48:17;;;;;;;28.32;10.38;;;;;;;9.97;100.00;100662.73;1647977;86;21022;-72
2022/10/08 05:50:44;;;;;;;28.02;11.48;;;;;;;10.09;100.00;100657.47;1658936;86;21018;-70
2022/10/08 05:53:10;;;;;;;27.00;12.58;;;;;;;10.19;100.00;100659.61;1658919;86;21062;-74
2022/10/08 05:55:38;;;;;;;26.97;13.88;;;;;;;10.34;100.00;100659.97;1731442;80;21011;-72
2022/10/08 05:58:05;;;;;;;26.80;10.18;;;;;;;10.47;100.00;100660.92;1796986;79;20992;-75
2022/10/08 06:00:32;;;;;;;24.60;10.55;;;;;;;10.60;100.00;100657.81;1813544;79;21013;-72
2022/10/08 06:03:00;;;;;;;27.82;11.22;;;;;;;10.74;100.00;100657.25;1809888;79;21008;-74
2022/10/08 06:05:27;;;;;;;84.28;43.98;;;;;;;10.90;100.00;100660.58;1816199;79;21020;-75
2022/10/08 06:07:58;;;;;;;26.62;9.25;;;;;;;11.08;100.00;100655.63;1815564;79;21001;-71
2022/10/08 06:10:24;;;;;;;34.90;10.40;;;;;;;11.26;100.00;100653.73;1816829;79;21465;-72
2022/10/08 06:12:51;;;;;;;22.73;10.80;;;;;;;11.46;100.00;100648.08;1828580;78;21003;-71
2022/10/08 06:15:20;;;;;;;31.80;17.92;;;;;;;11.66;100.00;100640.02;1823733;77;21036;-73
2022/10/08 06:17:49;;;;;;;35.55;15.83;;;;;;;11.87;100.00;100635.52;1804287;80;21020;-70
2022/10/08 06:20:17;;;;;;;365.25;230.87;;;;;;;12.10;100.00;100631.72;1805066;78;20961;-72
2022/10/08 06:22:44;;;;;;;39.10;22.60;;;;;;;12.32;100.00;100619.87;1822344;78;20980;-71
2022/10/08 06:25:11;;;;;;;31.70;12.88;;;;;;;12.55;100.00;100610.55;1824179;78;20977;-71
2022/10/08 06:27:40;;;;;;;29.25;13.72;;;;;;;12.78;100.00;100604.44;1837164;78;20990;-69
2022/10/08 06:30:09;;;;;;;72.50;37.85;;;;;;;13.02;100.00;100611.70;1847657;78;21007;-69
2022/10/08 06:32:36;;;;;;;47.00;24.20;;;;;;;13.26;100.00;100614.84;1833328;78;20964;-73
2022/10/08 06:35:04;;;;;;;26.02;12.25;;;;;;;13.48;100.00;100605.97;1831737;78;21019;-73
2022/10/08 06:37:31;;;;;;;21.95;10.00;;;;;;;13.73;100.00;100619.45;1849520;78;21038;-72
2022/10/08 06:39:58;;;;;;;23.45;8.50;;;;;;;13.96;100.00;100618.12;1847858;78;21030;-74
2022/10/08 06:42:25;;;;;;;21.17;7.45;;;;;;;14.14;100.00;100619.72;1809913;78;20981;-72
2022/10/08 06:44:52;;;;;;;20.02;7.50;;;;;;;14.33;100.00;100638.29;1802866;80;21013;-73
2022/10/08 06:47:20;;;;;;;19.17;7.62;;;;;;;14.45;100.00;100645.52;1816991;78;20971;-74
2022/10/08 06:49:47;;;;;;;22.00;9.35;;;;;;;14.60;100.00;100654.59;1833490;78;20992;-72
2022/10/08 06:52:14;;;;;;;20.88;6.80;;;;;;;14.76;100.00;100659.58;1817531;78;20947;-72
2022/10/08 06:54:42;;;;;;;16.82;6.90;;;;;;;14.93;100.00;100684.28;1804380;80;21012;-72
2022/10/08 06:57:08;;;;;;;15.58;6.90;;;;;;;15.23;100.00;100695.23;1802997;80;20985;-71
2022/10/08 06:59:35;;;;;;;16.23;6.90;;;;;;;15.23;100.00;100695.23;1808634;78;21021;-73
2022/10/08 07:02:02;;;;;;;26.75;8.93;;;;;;;15.66;100.00;100707.70;1809226;79;21553;-73
2022/10/08 07:04:33;;;;;;;24.25;11.43;;;;;;;15.66;100.00;100707.70;1810754;79;21024;-71
2022/10/08 07:07:00;;;;;;;20.55;11.00;;;;;;;15.86;100.00;100707.16;1810767;79;20992;-72
2022/10/08 07:09:27;;;;;;;15.23;7.65;;;;;;;16.04;100.00;100724.49;1810836;79;20996;-73
2022/10/08 07:11:55;;;;;;;15.72;6.65;;;;;;;16.20;100.00;100732.98;1816374;78;21063;-74
2022/10/08 07:14:23;;;;;;;74.50;44.60;;;;;;;16.33;100.00;100738.61;1834373;78;20995;-72
2022/10/08 07:16:50;;;;;;;43.90;27.40;;;;;;;16.54;100.00;100741.89;1798931;78;21082;-74
2022/10/08 07:19:16;;;;;;;21.20;10.18;;;;;;;16.77;100.00;100754.50;1797182;80;21541;-72
2022/10/08 07:21:43;;;;;;;27.58;16.50;;;;;;;16.93;100.00;100762.50;1797335;80;21039;-71
2022/10/08 07:24:10;;;;;;;18.48;8.00;;;;;;;17.13;100.00;100768.14;1797538;80;21011;-73
2022/10/08 07:26:38;;;;;;;19.55;8.55;;;;;;;17.34;100.00;100771.37;1797026;80;20992;-72
2022/10/08 07:29:07;;;;;;;17.15;6.90;;;;;;;17.52;100.00;100782.34;1797356;80;21014;-72
2022/10/08 07:31:36;;;;;;;19.30;11.78;;;;;;;17.70;100.00;100790.03;1797246;79;21450;-71
2022/10/08 07:34:09;;;;;;;20.35;8.95;;;;;;;17.87;100.00;100798.29;1797644;80;21517;-73
2022/10/08 07:36:36;;;;;;;26.68;13.95;;;;;;;18.06;100.00;100804.07;1798378;78;20999;-71
2022/10/08 07:39:07;;;;;;;13.00;6.60;;;;;;;18.25;100.00;100816.18;1780740;80;21551;-71
2022/10/08 07:41:34;;;;;;;14.90;5.58;;;;;;;18.29;100.00;100825.67;1734923;82;20984;-73
2022/10/08 07:44:03;;;;;;;15.58;6.75;;;;;;;18.37;100.00;100824.14;1708881;83;21086;-70
2022/10/08 07:46:37;;;;;;;11.73;5.22;;;;;;;18.55;100.00;100818.94;1734922;83;21535;-73
2022/10/08 07:49:07;;;;;;;18.37;9.38;;;;;;;18.73;100.00;100830.73;1734860;83;21039;-73
2022/10/08 07:51:35;;;;;;;60.95;36.42;;;;;;;18.83;100.00;100832.25;1734863;83;21123;-72
2022/10/08 07:54:04;;;;;;;49.67;31.17;;;;;;;18.92;100.00;100837.86;1734548;83;21215;-72
2022/10/08 07:56:32;;;;;;;16.55;9.75;;;;;;;19.05;100.00;100839.28;1755982;80;20979;-72
2022/10/08 07:58:59;;;;;;;15.95;7.97;;;;;;;19.18;100.00;100845.30;1732647;83;21107;-72
2022/10/08 08:01:28;;;;;;;14.78;6.15;;;;;;;19.33;100.00;100847.84;1751647;80;21017;-71
2022/10/08 08:04:02;;;;;;;11.75;5.80;;;;;;;19.41;100.00;100845.44;1755534;80;20999;-73
2022/10/08 08:06:31;;;;;;;9.40;4.55;;;;;;;19.47;100.00;100850.08;1760297;80;21043;-71
2022/10/08 08:09:00;;;;;;;6.70;4.47;;;;;;;19.48;100.00;100859.47;1755949;80;21117;-72
2022/10/08 08:11:27;;;;;;;18.02;6.00;;;;;;;19.48;100.00;100859.47;1759685;80;21516;-72
2022/10/08 08:13:55;;;;;;;8.58;5.05;;;;;;;19.49;100.00;100863.87;1730598;82;21107;-71
2022/10/08 08:16:27;;;;;;;12.90;5.10;;;;;;;19.50;100.00;100857.36;1773128;80;21017;-73
2022/10/08 08:18:57;;;;;;;;;;;;;;;19.52;100.00;100863.47;1749539;82;21090;-72
2022/10/08 08:21:28;;;;;;;9.60;4.65;;;;;;;19.54;100.00;100859.15;1777501;80;20338;-72
2022/10/08 08:23:56;;;;;;;12.10;5.00;;;;;;;19.58;100.00;100862.31;1686099;84;21058;-72
2022/10/08 08:26:27;;;;;;;7.83;5.03;;;;;;;19.53;100.00;100861.05;1708142;83;21122;-72
2022/10/08 08:28:57;;;;;;;13.03;5.08;;;;;;;19.53;100.00;100865.70;1701449;83;21078;-72
2022/10/08 08:31:30;;;;;;;10.45;5.60;;;;;;;19.52;100.00;100865.38;1707512;83;20991;-73
2022/10/08 08:34:07;;;;;;;10.30;5.20;;;;;;;19.57;100.00;100860.64;1662806;85;21613;-73
2022/10/08 08:36:44;;;;;;;20.97;7.22;;;;;;;19.69;100.00;100852.94;1676306;85;21351;-78
2022/10/08 08:39:26;;;;;;;39.92;16.60;;;;;;;19.91;100.00;100853.56;1650985;87;21472;-73
2022/10/08 08:42:20;;;;;;;40.88;26.87;;;;;;;20.12;100.00;100850.81;1624387;85;21081;-73
2022/10/08 08:44:55;;;;;;;23.22;12.65;;;;;;;20.31;100.00;100845.80;1620217;88;21045;-74
2022/10/08 08:47:30;;;;;;;47.38;18.92;;;;;;;20.62;100.00;100834.61;1527118;88;21052;-73
2022/10/08 08:50:03;;;;;;;24.10;9.40;;;;;;;20.81;100.00;100844.66;1520049;94;21160;-72
2022/10/08 08:52:35;;;;;;;15.45;6.40;;;;;;;21.00;100.00;100847.51;1485459;96;21611;-72
2022/10/08 08:55:16;;;;;;;11.93;5.05;;;;;;;21.19;100.00;100845.70;1486718;97;21151;-74
2022/10/08 08:57:59;;;;;;;12.33;6.45;;;;;;;21.30;100.00;100847.77;1487786;95;21687;-74
2022/10/08 09:00:34;;;;;;;10.60;5.35;;;;;;;21.39;100.00;100848.34;1420755;101;21189;-73
2022/10/08 09:03:04;;;;;;;9.45;4.78;;;;;;;21.56;100.00;100843.14;1421494;101;21096;-73
2022/10/08 09:05:34;;;;;;;10.08;4.35;;;;;;;21.67;100.00;100846.53;1421400;101;21189;-74
2022/10/08 09:08:20;;;;;;;6.75;3.72;;;;;;;21.75;100.00;100853.68;1421768;101;21161;-72
2022/10/08 09:10:57;;;;;;;5.53;3.67;;;;;;;21.84;100.00;100848.19;1420937;100;21243;-76
2022/10/08 09:13:31;;;;;;;6.55;3.60;;;;;;;22.03;100.00;100848.21;1420904;101;21163;-76
2022/10/08 09:15:58;;;;;;;7.20;3.80;;;;;;;22.10;100.00;100853.14;1398287;102;21666;-74
2022/10/08 09:18:26;;;;;;;24.10;12.58;;;;;;;22.07;100.00;100853.59;1388736;103;21172;-73
2022/10/08 09:20:53;;;;;;;18.77;10.28;;;;;;;22.04;100.00;100853.49;1379007;103;21142;-72
2022/10/08 09:23:23;;;;;;;20.72;9.70;;;;;;;22.14;100.00;100852.98;1369316;103;21133;-70
2022/10/08 09:26:21;;;;;;;32.78;16.10;;;;;;;22.27;100.00;100850.65;1369105;105;21238;-73
2022/10/08 09:28:53;;;;;;;66.33;41.45;;;;;;;22.30;100.00;100852.41;1313544;109;21089;-72
2022/10/08 09:31:40;;;;;;;14.87;6.73;;;;;;;22.29;100.00;100854.88;1370558;103;21125;-72
2022/10/08 09:34:17;;;;;;;110.57;47.03;;;;;;;22.29;100.00;100854.88;1383143;101;21581;-71
2022/10/08 09:37:02;;;;;;;40.75;17.20;;;;;;;22.24;100.00;100849.17;1413096;100;21114;-71
2022/10/08 09:39:33;;;;;;;20.72;7.95;;;;;;;22.24;100.00;100848.31;1426067;99;21137;-72
2022/10/08 09:42:18;;;;;;;16.05;6.70;;;;;;;22.25;100.00;100849.47;1389123;101;21103;-69
2022/10/08 09:44:58;;;;;;;58.95;42.33;;;;;;;22.27;100.00;100837.70;1383431;102;21190;-70
2022/10/08 09:47:29;;;;;;;55.08;38.88;;;;;;;22.27;100.00;100833.58;1447731;97;21628;-72
2022/10/08 09:50:12;;;;;;;26.80;13.80;;;;;;;22.37;100.00;100824.24;1436523;97;21183;-71
2022/10/08 09:52:43;;;;;;;15.70;8.28;;;;;;;22.51;100.00;100822.72;1440229;99;21152;-71
2022/10/08 09:55:18;;;;;;;8.98;4.33;;;;;;;22.61;100.00;100829.05;1423853;99;21068;-71
2022/10/08 09:57:49;;;;;;;7.65;3.67;;;;;;;22.67;100.00;100817.94;1439878;99;21641;-71
2022/10/08 10:00:30;;;;;;;6.53;3.60;;;;;;;22.71;100.00;100816.39;1436478;99;21096;-72
2022/10/08 10:02:58;;;;;;;7.30;3.30;;;;;;;22.77;100.00;100811.89;1445749;92;21851;-73
2022/10/08 10:05:29;;;;;;;80.67;45.78;;;;;;;22.95;100.00;100806.86;1593189;87;21097;-71
2022/10/08 10:07:56;;;;;;;16.77;8.50;;;;;;;23.10;100.00;100806.44;1625377;87;21149;-72
2022/10/08 10:10:48;;;;;;;18.40;6.47;;;;;;;23.20;100.00;100801.74;1628248;87;21550;-73
2022/10/08 10:13:29;;;;;;;15.55;5.45;;;;;;;23.25;100.00;100804.64;1629140;87;21670;-73
2022/10/08 10:16:14;;;;;;;6.33;3.72;;;;;;;23.23;100.00;100800.73;1632580;88;21025;-73
2022/10/08 10:18:59;;;;;;;7.28;3.52;;;;;;;23.07;100.00;100798.11;1596170;89;21627;-70
2022/10/08 10:21:41;;;;;;;7.03;3.62;;;;;;;22.95;100.00;100788.93;1589808;89;21541;-71
2022/10/08 10:24:48;;;;;;;11.70;4.20;;;;;;;22.93;100.00;100789.16;1625269;87;21057;-75
2022/10/08 10:27:28;;;;;;;8.25;4.15;;;;;;;22.87;100.00;100778.22;1609722;87;21185;-74
2022/10/08 10:30:18;;;;;;;16.32;7.30;;;;;;;22.77;100.00;100776.56;1597388;89;21512;-73
2022/10/08 10:32:58;;;;;;;57.83;20.75;;;;;;;22.72;100.00;100775.36;1592021;90;21523;-73
2022/10/08 10:35:28;;;;;;;53.30;22.17;;;;;;;22.81;100.00;100768.15;1598201;90;21050;-71
2022/10/08 10:38:05;;;;;;;22.30;8.98;;;;;;;22.80;100.00;100765.08;1508529;95;21021;-71
2022/10/08 10:40:41;;;;;;;7.87;4.47;;;;;;;22.77;100.00;100751.23;1510326;95;21187;-71
2022/10/08 10:43:48;;;;;;;15.30;4.08;;;;;;;22.81;100.00;100741.41;1510643;95;21084;-73
2022/10/08 10:46:35;;;;;;;7.60;3.62;;;;;;;22.84;100.00;100744.22;1562056;91;21604;-72
2022/10/08 10:49:17;;;;;;;21.27;15.18;;;;;;;22.82;100.00;100736.19;1577070;91;21140;-71
2022/10/08 10:52:12;;;;;;;35.63;24.37;;;;;;;22.87;100.00;100733.56;1576552;91;21563;-71
2022/10/08 10:54:49;;;;;;;8.40;4.05;;;;;;;22.88;100.00;100727.53;1573660;91;21085;-72
2022/10/08 10:57:26;;;;;;;6.78;3.90;;;;;;;22.90;100.00;100728.96;1576083;91;21117;-72
2022/10/08 11:00:05;;;;;;;13.28;7.05;;;;;;;22.92;100.00;100721.84;1557212;91;21088;-73
2022/10/08 11:02:46;;;;;;;36.65;19.20;;;;;;;22.94;100.00;100723.81;1507650;95;21116;-71
2022/10/08 11:05:25;;;;;;;14.95;5.25;;;;;;;22.98;100.00;100716.73;1546724;92;21037;-72
2022/10/08 11:08:29;;;;;;;8.90;4.15;;;;;;;23.01;100.00;100710.76;1556697;91;21568;-71
2022/10/08 11:11:11;;;;;;;5.90;3.22;;;;;;;23.00;100.00;100715.13;1521547;93;21158;-72
2022/10/08 11:14:09;;;;;;;6.17;3.67;;;;;;;23.00;100.00;100710.98;1482849;96;21605;-72
2022/10/08 11:17:24;;;;;;;6.25;3.33;;;;;;;23.02;100.00;100707.45;1481236;96;21114;-72
2022/10/08 11:20:18;;;;;;;4.90;3.30;;;;;;;23.09;100.00;100703.56;1512479;93;21569;-72
2022/10/08 11:22:59;;;;;;;16.32;6.83;;;;;;;23.21;100.00;100696.66;1502240;94;21166;-72
2022/10/08 11:25:36;;;;;;;29.42;19.77;;;;;;;23.27;100.00;100692.13;1532551;92;21162;-72
2022/10/08 11:28:26;;;;;;;8.73;5.17;;;;;;;23.26;100.00;100684.36;1533045;93;21219;-72
2022/10/08 11:31:19;;;;;;;7.00;4.15;;;;;;;23.21;100.00;100682.03;1526321;94;21158;-74
2022/10/08 11:33:46;;;;;;;14.25;7.55;;;;;;;23.16;100.00;100676.39;1493474;91;21509;-73
2022/10/08 11:36:35;;;;;;;28.90;17.50;;;;;;;23.05;100.00;100678.89;1569844;91;21078;-73